LIMZ/CUF METAR and TAF weather

Enter ICAO airport designator
Station Type Date Time Source
LIMZ METAR 2019/04/22 18:50 UTC NOAA

LIMZ 221850Z 25004KT 6000 -RA SCT050 BKN090 10/08 Q1009


Station Type Date Time Source
LIMZ Decoded METAR 2019/04/22 18:50 UTC NOAA

Cuneo / Levaldigi, Italy (LIMZ) 44-32-47N 007-37-20E
Apr 22, 2019 - 02:50 PM EDT / 2019.04.22 1850 UTC
Wind: from the WSW (250 degrees) at 5 MPH (4 KT):0
Visibility: 3 mile(s):0
Sky conditions: mostly cloudy
Weather: light rain
Temperature: 50 F (10 C)
Dew Point: 46 F (8 C)
Relative Humidity: 87%
Pressure (altimeter): 29.80 in. Hg (1009 hPa)
ob: LIMZ 221850Z 25004KT 6000 -RA SCT050 BKN090 10/08 Q1009
cycle: 19

Station Type Date Time Source
LIMZ TAF 2019/04/22 18:21 UTC NOAA

TAF LIMZ 221700Z 2218/2318 04008KT 6000 RA BKN020 BKN050

Example: see airport list